createdAt,value
2019-02-26T00:00:32.298Z,64.11
2019-02-26T00:01:32.291Z,63.90
2019-02-26T00:02:32.632Z,63.79
2019-02-26T00:03:33.232Z,63.93
2019-02-26T00:04:34.484Z,63.48
2019-02-26T00:05:33.078Z,63.69
2019-02-26T00:06:32.233Z,63.69
2019-02-26T00:07:32.311Z,63.48
2019-02-26T00:08:33.536Z,63.93
2019-02-26T00:09:35.034Z,63.93
2019-02-26T00:10:34.017Z,64.65
2019-02-26T00:11:33.387Z,65.41
2019-02-26T00:12:33.290Z,64.79
2019-02-26T00:13:34.098Z,66.17
2019-02-26T00:14:32.148Z,66.17
2019-02-26T00:15:35.496Z,66.17
2019-02-26T00:16:35.237Z,66.27
2019-02-26T00:17:36.191Z,66.14
2019-02-26T00:18:32.106Z,66.24
2019-02-26T00:19:32.094Z,65.72
2019-02-26T00:20:34.386Z,65.41
2019-02-26T00:21:32.074Z,65.31
2019-02-26T00:22:32.733Z,65.72
2019-02-26T00:23:32.084Z,64.89
2019-02-26T00:24:33.024Z,66.03
2019-02-26T00:25:32.031Z,65.72
2019-02-26T00:26:34.018Z,65.83
2019-02-26T00:27:33.003Z,64.79
2019-02-26T00:28:32.000Z,65.00
2019-02-26T00:29:32.242Z,65.03
2019-02-26T00:30:33.466Z,65.03
2019-02-26T00:31:31.968Z,65.34
2019-02-26T00:32:33.822Z,65.65
2019-02-26T00:33:31.947Z,66.38
2019-02-26T00:34:32.750Z,65.75
2019-02-26T00:35:31.937Z,65.03
2019-02-26T00:36:33.526Z,65.23
2019-02-26T00:37:31.905Z,64.61
2019-02-26T00:38:33.059Z,64.92
2019-02-26T00:39:31.885Z,64.61
2019-02-26T00:40:32.695Z,65.03
2019-02-26T00:41:33.537Z,64.30
2019-02-26T00:42:33.783Z,64.20
2019-02-26T00:43:32.381Z,64.20
2019-02-26T00:44:32.732Z,63.37
2019-02-26T00:45:34.006Z,63.99
2019-02-26T00:46:32.628Z,63.57
2019-02-26T00:47:33.859Z,63.47
2019-02-26T00:48:33.627Z,64.20
2019-02-26T00:49:31.779Z,64.02
2019-02-26T00:50:33.136Z,64.40
2019-02-26T00:51:31.769Z,64.75
2019-02-26T00:52:32.643Z,65.47
2019-02-26T00:53:33.051Z,65.19
2019-02-26T00:54:32.684Z,64.87
2019-02-26T00:55:32.173Z,64.98
2019-02-26T00:56:33.864Z,65.08
2019-02-26T00:57:33.443Z,65.16
2019-02-26T00:58:32.063Z,65.50
2019-02-26T00:59:31.692Z,65.50
2019-02-26T01:00:33.186Z,64.54
2019-02-26T01:01:31.653Z,65.08
2019-02-26T01:02:31.643Z,65.08
2019-02-26T01:03:31.633Z,64.98
2019-02-26T01:04:31.622Z,66.25
2019-02-26T01:05:31.624Z,67.30
2019-02-26T01:06:33.437Z,66.60
2019-02-26T01:07:31.589Z,67.22
2019-02-26T01:08:31.580Z,67.36
2019-02-26T01:09:32.353Z,66.74
2019-02-26T01:10:31.557Z,67.74
2019-02-26T01:11:31.577Z,67.74
2019-02-26T01:12:33.051Z,66.71
2019-02-26T01:13:32.271Z,66.99
2019-02-26T01:14:31.530Z,66.57
2019-02-26T01:15:31.502Z,67.30
2019-02-26T01:16:31.493Z,66.57
2019-02-26T01:17:33.264Z,66.78
2019-02-26T01:18:31.482Z,67.19
2019-02-26T01:19:32.087Z,66.88
2019-02-26T01:20:31.996Z,66.15
2019-02-26T01:21:33.537Z,66.44
2019-02-26T01:22:33.050Z,66.67
2019-02-26T01:23:31.430Z,67.43
2019-02-26T01:24:32.717Z,67.67
2019-02-26T01:25:31.395Z,68.91
2019-02-26T01:26:31.385Z,69.12
2019-02-26T01:27:31.375Z,68.74
2019-02-26T01:28:31.362Z,69.47
2019-02-26T01:29:32.354Z,69.26
2019-02-26T01:30:33.633Z,68.60
2019-02-26T01:31:32.073Z,69.12
2019-02-26T01:32:31.319Z,69.33
2019-02-26T01:33:32.140Z,68.91
2019-02-26T01:34:31.297Z,68.68
2019-02-26T01:35:33.162Z,68.05
2019-02-26T01:36:31.274Z,68.29
2019-02-26T01:37:32.205Z,68.50
2019-02-26T01:38:31.257Z,68.71
2019-02-26T01:39:31.243Z,68.08
2019-02-26T01:40:31.231Z,68.08
2019-02-26T01:41:31.238Z,68.08
2019-02-26T01:42:31.654Z,68.57
2019-02-26T01:43:31.198Z,67.74
2019-02-26T01:44:32.960Z,68.05
2019-02-26T01:45:32.367Z,68.71
2019-02-26T01:46:32.261Z,68.08
2019-02-26T01:47:31.168Z,68.19
2019-02-26T01:48:32.203Z,68.08
2019-02-26T01:49:31.135Z,68.40
2019-02-26T01:50:33.223Z,68.60
2019-02-26T01:51:31.115Z,68.29
2019-02-26T01:52:31.105Z,68.71
2019-02-26T01:53:31.103Z,68.26
2019-02-26T01:54:32.969Z,68.26
2019-02-26T01:55:31.069Z,68.05
2019-02-26T01:56:31.057Z,68.05
2019-02-26T01:57:31.047Z,68.26
2019-02-26T01:58:33.485Z,68.16
2019-02-26T01:59:33.588Z,68.05
2019-02-26T02:00:31.016Z,68.29
2019-02-26T02:01:31.003Z,67.74
2019-02-26T02:02:30.993Z,68.19
2019-02-26T02:03:32.570Z,68.05
2019-02-26T02:04:32.036Z,68.37
2019-02-26T02:05:31.442Z,68.05
2019-02-26T02:06:33.113Z,68.47
2019-02-26T02:07:30.945Z,68.37
2019-02-26T02:08:30.928Z,67.95
2019-02-26T02:09:30.920Z,68.40
2019-02-26T02:10:30.905Z,68.29
2019-02-26T02:11:31.602Z,68.50
2019-02-26T02:12:32.419Z,68.40
2019-02-26T02:13:32.967Z,68.40
2019-02-26T02:14:30.865Z,68.29
2019-02-26T02:15:30.850Z,68.43
2019-02-26T02:16:31.458Z,68.43
2019-02-26T02:17:31.605Z,69.05
2019-02-26T02:18:30.818Z,68.84
2019-02-26T02:19:32.559Z,68.74
2019-02-26T02:20:30.796Z,68.88
2019-02-26T02:21:31.472Z,69.37
2019-02-26T02:22:30.789Z,69.37
2019-02-26T02:23:30.773Z,69.78
2019-02-26T02:24:30.755Z,69.68
2019-02-26T02:25:33.169Z,69.37
2019-02-26T02:26:30.738Z,69.89
2019-02-26T02:27:33.130Z,70.30
2019-02-26T02:28:31.059Z,70.23
2019-02-26T02:29:30.710Z,70.23
2019-02-26T02:30:31.730Z,70.23
2019-02-26T02:31:32.226Z,70.64
2019-02-26T02:32:32.341Z,70.12
2019-02-26T02:33:33.109Z,69.89
2019-02-26T02:34:32.956Z,69.37
2019-02-26T02:35:31.650Z,69.47
2019-02-26T02:36:30.626Z,69.26
2019-02-26T02:37:31.977Z,69.40
2019-02-26T02:38:30.603Z,69.71
2019-02-26T02:39:30.594Z,70.36
2019-02-26T02:40:30.582Z,70.78
2019-02-26T02:41:30.583Z,71.65
2019-02-26T02:42:30.560Z,72.06
2019-02-26T02:43:30.552Z,72.62
2019-02-26T02:44:30.539Z,72.83
2019-02-26T02:45:30.529Z,72.83
2019-02-26T02:46:30.518Z,72.72
2019-02-26T02:47:33.196Z,72.30
2019-02-26T02:48:30.508Z,72.51
2019-02-26T02:49:32.777Z,72.51
2019-02-26T02:50:31.487Z,72.09
2019-02-26T02:51:31.539Z,71.78
2019-02-26T02:52:32.472Z,71.86
2019-02-26T02:53:32.280Z,71.96
2019-02-26T02:54:30.443Z,71.75
2019-02-26T02:55:30.424Z,71.54
2019-02-26T02:56:30.911Z,71.75
2019-02-26T02:57:32.632Z,71.44
2019-02-26T02:58:30.398Z,71.33
2019-02-26T02:59:31.024Z,71.33
2019-02-26T03:00:32.159Z,71.44
2019-02-26T03:01:30.361Z,71.20
2019-02-26T03:02:30.351Z,70.89
2019-02-26T03:03:30.339Z,70.89
2019-02-26T03:04:31.745Z,71.09
2019-02-26T03:05:33.683Z,70.78
2019-02-26T03:06:32.388Z,70.26
2019-02-26T03:07:30.298Z,70.26
2019-02-26T03:08:30.287Z,70.57
2019-02-26T03:09:31.763Z,70.99
2019-02-26T03:10:33.523Z,70.68
2019-02-26T03:11:30.277Z,70.89
2019-02-26T03:12:30.247Z,71.09
2019-02-26T03:13:30.240Z,70.89
2019-02-26T03:14:33.054Z,70.99
2019-02-26T03:15:33.768Z,71.09
2019-02-26T03:16:30.205Z,70.99
2019-02-26T03:17:30.209Z,71.92
2019-02-26T03:18:30.184Z,71.30
2019-02-26T03:19:32.452Z,71.30
2019-02-26T03:20:31.347Z,71.41
2019-02-26T03:21:31.152Z,71.41
2019-02-26T03:22:30.148Z,71.41
2019-02-26T03:23:31.360Z,71.09
2019-02-26T03:24:31.408Z,71.41
2019-02-26T03:25:30.111Z,71.30
2019-02-26T03:26:30.106Z,71.72
2019-02-26T03:27:31.317Z,71.41
2019-02-26T03:28:34.882Z,71.30
2019-02-26T03:29:31.084Z,71.75
2019-02-26T03:30:36.886Z,71.65
2019-02-26T03:31:35.197Z,71.44
2019-02-26T03:32:31.046Z,71.82
2019-02-26T03:33:30.029Z,72.66
2019-02-26T03:34:30.030Z,72.45
2019-02-26T03:35:30.017Z,72.48
2019-02-26T03:36:31.628Z,72.45
2019-02-26T03:37:31.407Z,72.27
2019-02-26T03:38:29.976Z,72.66
2019-02-26T03:39:29.965Z,71.92
2019-02-26T03:40:32.909Z,71.82
2019-02-26T03:41:31.243Z,71.20
2019-02-26T03:42:29.934Z,71.82
2019-02-26T03:43:31.440Z,71.41
2019-02-26T03:44:30.429Z,71.48
2019-02-26T03:45:29.902Z,71.37
2019-02-26T03:46:29.892Z,71.06
2019-02-26T03:47:29.893Z,71.17
2019-02-26T03:48:29.873Z,71.09
2019-02-26T03:49:29.862Z,70.89
2019-02-26T03:50:29.854Z,71.30
2019-02-26T03:51:29.848Z,71.20
2019-02-26T03:52:32.137Z,71.09
2019-02-26T03:53:31.322Z,70.89
2019-02-26T03:54:29.810Z,71.41
2019-02-26T03:55:31.727Z,71.51
2019-02-26T03:56:29.788Z,71.54
2019-02-26T03:57:29.778Z,71.75
2019-02-26T03:58:29.767Z,71.96
2019-02-26T03:59:29.771Z,72.06
2019-02-26T04:00:31.558Z,71.96
2019-02-26T04:01:29.739Z,72.27
2019-02-26T04:02:29.726Z,72.48
2019-02-26T04:03:31.998Z,72.20
2019-02-26T04:04:31.113Z,72.06
2019-02-26T04:05:29.713Z,72.48
2019-02-26T04:06:30.596Z,71.86
2019-02-26T04:07:30.253Z,72.06
2019-02-26T04:08:30.308Z,72.27
2019-02-26T04:09:29.657Z,72.17
2019-02-26T04:10:29.645Z,71.75
2019-02-26T04:11:29.644Z,71.65
2019-02-26T04:12:29.627Z,71.86
2019-02-26T04:13:29.616Z,71.65
2019-02-26T04:14:30.720Z,71.44
2019-02-26T04:15:31.027Z,71.65
2019-02-26T04:16:30.309Z,71.96
2019-02-26T04:17:30.743Z,72.06
2019-02-26T04:18:34.150Z,72.06
2019-02-26T04:19:30.550Z,72.27
2019-02-26T04:20:29.539Z,72.38
2019-02-26T04:21:29.529Z,71.86
2019-02-26T04:22:29.520Z,72.27
2019-02-26T04:23:29.522Z,72.48
2019-02-26T04:24:32.603Z,72.38
2019-02-26T04:25:33.264Z,72.79
2019-02-26T04:26:34.419Z,73.66
2019-02-26T04:27:30.700Z,73.03
2019-02-26T04:28:33.099Z,73.03
2019-02-26T04:29:29.458Z,73.66
2019-02-26T04:30:34.072Z,73.21
2019-02-26T04:31:30.424Z,73.35
2019-02-26T04:32:29.414Z,73.24
2019-02-26T04:33:30.413Z,73.45
2019-02-26T04:34:29.441Z,73.76
2019-02-26T04:35:29.396Z,73.66
2019-02-26T04:36:29.371Z,73.35
2019-02-26T04:37:30.710Z,73.35
2019-02-26T04:38:31.190Z,73.76
2019-02-26T04:39:29.352Z,73.55
2019-02-26T04:40:30.393Z,73.24
2019-02-26T04:41:29.329Z,73.03
2019-02-26T04:42:29.310Z,73.45
2019-02-26T04:43:31.316Z,73.03
2019-02-26T04:44:31.333Z,73.42
2019-02-26T04:45:29.277Z,72.89
2019-02-26T04:46:31.602Z,73.03
2019-02-26T04:47:33.146Z,72.93
2019-02-26T04:48:31.704Z,72.93
2019-02-26T04:49:30.890Z,73.24
2019-02-26T04:50:32.376Z,73.03
2019-02-26T04:51:30.221Z,73.03
2019-02-26T04:52:31.597Z,73.14
2019-02-26T04:53:31.195Z,73.55
2019-02-26T04:54:31.182Z,73.27
2019-02-26T04:55:31.872Z,73.35
2019-02-26T04:56:31.416Z,73.27
2019-02-26T04:57:29.151Z,73.27
2019-02-26T04:58:29.140Z,73.49
2019-02-26T04:59:30.008Z,73.49
2019-02-26T05:00:30.384Z,73.27
2019-02-26T05:01:29.119Z,72.86
2019-02-26T05:02:29.099Z,73.80
2019-02-26T05:03:29.089Z,74.77
2019-02-26T05:04:30.739Z,73.83
2019-02-26T05:05:33.675Z,74.66
2019-02-26T05:06:30.067Z,74.66
2019-02-26T05:07:29.054Z,73.72
2019-02-26T05:08:31.556Z,74.46
2019-02-26T05:09:30.619Z,74.46
2019-02-26T05:10:31.766Z,74.56
2019-02-26T05:11:32.679Z,74.46
2019-02-26T05:12:31.643Z,74.56
2019-02-26T05:13:30.064Z,74.46
2019-02-26T05:14:28.970Z,74.46
2019-02-26T05:15:30.923Z,74.87
2019-02-26T05:16:31.736Z,74.66
2019-02-26T05:17:32.630Z,74.98
2019-02-26T05:18:31.633Z,75.32
2019-02-26T05:19:28.914Z,75.12
2019-02-26T05:20:31.266Z,75.22
2019-02-26T05:21:30.419Z,75.12
2019-02-26T05:22:31.004Z,74.91
2019-02-26T05:23:31.693Z,75.01
2019-02-26T05:24:28.861Z,74.91
2019-02-26T05:25:28.851Z,75.78
2019-02-26T05:26:30.231Z,76.40
2019-02-26T05:27:28.829Z,76.20
2019-02-26T05:28:32.690Z,76.20
2019-02-26T05:29:28.818Z,75.85
2019-02-26T05:30:28.796Z,75.95
2019-02-26T05:31:29.624Z,75.85
2019-02-26T05:32:30.911Z,75.85
2019-02-26T05:33:30.975Z,76.16
2019-02-26T05:34:28.754Z,75.78
2019-02-26T05:35:28.755Z,75.05
2019-02-26T05:36:31.095Z,75.26
2019-02-26T05:37:29.798Z,75.01
2019-02-26T05:38:30.567Z,75.22
2019-02-26T05:39:28.955Z,75.22
2019-02-26T05:40:28.691Z,75.26
2019-02-26T05:41:28.699Z,75.15
2019-02-26T05:42:28.670Z,75.26
2019-02-26T05:43:30.671Z,75.12
2019-02-26T05:44:28.651Z,75.15
2019-02-26T05:45:29.866Z,75.15
2019-02-26T05:46:29.483Z,75.26
2019-02-26T05:47:28.630Z,75.05
2019-02-26T05:48:28.661Z,74.63
2019-02-26T05:49:28.597Z,75.98
2019-02-26T05:50:30.220Z,75.98
2019-02-26T05:51:31.984Z,75.46
2019-02-26T05:52:30.646Z,75.57
2019-02-26T05:53:28.567Z,75.05
2019-02-26T05:54:28.547Z,75.15
2019-02-26T05:55:28.555Z,75.05
2019-02-26T05:56:28.523Z,75.26
2019-02-26T05:57:32.561Z,75.36
2019-02-26T05:58:28.503Z,75.05
2019-02-26T05:59:28.505Z,75.05
2019-02-26T06:00:30.567Z,75.15
2019-02-26T06:01:28.471Z,75.05
2019-02-26T06:02:28.460Z,75.67
2019-02-26T06:03:28.451Z,75.78
2019-02-26T06:04:28.441Z,76.12
2019-02-26T06:05:28.444Z,76.40
2019-02-26T06:06:28.420Z,76.09
2019-02-26T06:07:31.364Z,76.20
2019-02-26T06:08:32.675Z,75.98
2019-02-26T06:09:30.549Z,76.40
2019-02-26T06:10:30.518Z,76.40
2019-02-26T06:11:31.240Z,76.54
2019-02-26T06:12:32.415Z,76.54
2019-02-26T06:13:29.150Z,76.86
2019-02-26T06:14:31.206Z,77.27
2019-02-26T06:15:29.637Z,77.59
2019-02-26T06:16:29.050Z,77.10
2019-02-26T06:17:28.318Z,76.96
2019-02-26T06:18:28.295Z,77.27
2019-02-26T06:19:30.102Z,77.00
2019-02-26T06:20:30.771Z,77.17
2019-02-26T06:21:28.263Z,77.48
2019-02-26T06:22:29.696Z,77.83
2019-02-26T06:23:31.216Z,77.73
2019-02-26T06:24:29.811Z,78.04
2019-02-26T06:25:28.239Z,78.04
2019-02-26T06:26:32.407Z,77.83
2019-02-26T06:27:28.199Z,78.67
2019-02-26T06:28:28.189Z,78.77
2019-02-26T06:29:30.002Z,78.70
2019-02-26T06:30:28.168Z,78.70
2019-02-26T06:31:28.158Z,78.14
2019-02-26T06:32:31.967Z,77.73
2019-02-26T06:33:31.761Z,77.62
2019-02-26T06:34:28.126Z,77.48
2019-02-26T06:35:28.126Z,77.73
2019-02-26T06:36:28.677Z,76.75
2019-02-26T06:37:29.176Z,77.59
2019-02-26T06:38:30.289Z,76.65
2019-02-26T06:39:29.951Z,76.96
2019-02-26T06:40:28.065Z,76.75
2019-02-26T06:41:28.066Z,76.75
2019-02-26T06:42:28.822Z,77.41
2019-02-26T06:43:28.032Z,77.20
2019-02-26T06:44:28.024Z,77.41
2019-02-26T06:45:28.012Z,77.62
2019-02-26T06:46:29.384Z,77.51
2019-02-26T06:47:30.524Z,78.04
2019-02-26T06:48:29.803Z,78.94
2019-02-26T06:49:29.094Z,77.69
2019-02-26T06:50:27.960Z,77.48
2019-02-26T06:51:28.918Z,77.90
2019-02-26T06:52:29.892Z,78.46
2019-02-26T06:53:27.939Z,78.98
2019-02-26T06:54:29.150Z,79.33
2019-02-26T06:55:27.907Z,80.38
2019-02-26T06:56:30.013Z,80.16
2019-02-26T06:57:27.886Z,80.38
2019-02-26T06:58:27.875Z,80.83
2019-02-26T06:59:29.477Z,81.15
2019-02-26T07:00:29.379Z,81.11
2019-02-26T07:01:27.845Z,81.21
2019-02-26T07:02:29.037Z,81.11
2019-02-26T07:03:27.823Z,81.46
2019-02-26T07:04:30.050Z,81.52
2019-02-26T07:05:27.818Z,81.95
2019-02-26T07:06:30.179Z,81.28
2019-02-26T07:07:27.781Z,80.13
2019-02-26T07:08:30.412Z,79.78
2019-02-26T07:09:27.761Z,79.36
2019-02-26T07:10:29.530Z,78.70
2019-02-26T07:11:30.168Z,77.76
2019-02-26T07:12:27.731Z,77.55
2019-02-26T07:13:27.720Z,77.51
2019-02-26T07:14:29.735Z,77.41
2019-02-26T07:15:29.322Z,77.27
2019-02-26T07:16:27.687Z,76.75
2019-02-26T07:17:31.876Z,76.75
2019-02-26T07:18:28.664Z,76.54
2019-02-26T07:19:28.894Z,76.54
2019-02-26T07:20:33.910Z,75.98
2019-02-26T07:21:28.633Z,75.85
2019-02-26T07:22:27.625Z,74.91
2019-02-26T07:23:29.811Z,74.56
2019-02-26T07:24:27.602Z,74.11
2019-02-26T07:25:27.594Z,74.01
2019-02-26T07:26:27.581Z,74.08
2019-02-26T07:27:28.877Z,73.00
2019-02-26T07:28:27.559Z,72.28
2019-02-26T07:29:30.794Z,71.86
2019-02-26T07:30:28.537Z,71.31
2019-02-26T07:31:28.814Z,71.28
2019-02-26T07:32:27.517Z,70.54
2019-02-26T07:33:29.742Z,70.10
2019-02-26T07:34:27.536Z,70.38
2019-02-26T07:35:28.792Z,69.34
2019-02-26T07:36:28.159Z,69.13
2019-02-26T07:37:28.627Z,69.13
2019-02-26T07:38:27.745Z,69.45
2019-02-26T07:39:27.441Z,68.24
2019-02-26T07:40:28.406Z,69.07
2019-02-26T07:41:28.389Z,68.10
2019-02-26T07:42:27.408Z,68.00
2019-02-26T07:43:27.398Z,68.00
2019-02-26T07:44:28.384Z,66.31
2019-02-26T07:45:29.292Z,66.72
2019-02-26T07:46:27.367Z,66.08
2019-02-26T07:47:29.414Z,66.38
2019-02-26T07:48:29.454Z,64.80
2019-02-26T07:49:27.335Z,65.22
2019-02-26T07:50:31.485Z,64.56
2019-02-26T07:51:29.394Z,65.39
2019-02-26T07:52:28.437Z,64.77
2019-02-26T07:53:27.313Z,65.19
2019-02-26T07:54:28.851Z,64.43
2019-02-26T07:55:27.701Z,64.36
2019-02-26T07:56:28.186Z,64.53
2019-02-26T07:57:27.712Z,64.43
2019-02-26T07:58:27.239Z,63.99
2019-02-26T07:59:27.919Z,63.99
2019-02-26T08:00:27.215Z,64.20
2019-02-26T08:01:27.203Z,63.89
2019-02-26T08:02:27.825Z,63.89
2019-02-26T08:03:29.291Z,63.34
2019-02-26T08:04:27.186Z,63.65
2019-02-26T08:05:28.878Z,63.72
2019-02-26T08:06:29.203Z,62.79
2019-02-26T08:07:28.501Z,62.25
2019-02-26T08:08:27.128Z,62.32
2019-02-26T08:09:27.120Z,62.12
2019-02-26T08:10:27.106Z,62.32
2019-02-26T08:11:27.112Z,61.36
2019-02-26T08:12:27.085Z,61.36
2019-02-26T08:13:29.852Z,59.82
2019-02-26T08:14:27.063Z,59.30
2019-02-26T08:15:27.808Z,61.05
2019-02-26T08:16:27.686Z,59.69
2019-02-26T08:17:27.045Z,60.31
2019-02-26T08:18:27.022Z,60.31
2019-02-26T08:19:29.616Z,59.58
2019-02-26T08:20:28.437Z,60.28
2019-02-26T08:21:27.916Z,59.79
2019-02-26T08:22:27.562Z,59.89
2019-02-26T08:23:26.976Z,59.86
2019-02-26T08:24:26.957Z,59.45
2019-02-26T08:25:26.954Z,59.48
2019-02-26T08:26:29.057Z,59.66
2019-02-26T08:27:28.568Z,59.35
2019-02-26T08:28:26.911Z,59.25
2019-02-26T08:29:28.899Z,59.25
2019-02-26T08:30:26.892Z,59.25
2019-02-26T08:31:27.923Z,59.12
2019-02-26T08:32:28.631Z,59.19
2019-02-26T08:33:26.866Z,58.58
2019-02-26T08:34:26.847Z,58.16
2019-02-26T08:35:26.853Z,58.26
2019-02-26T08:36:26.823Z,58.68
2019-02-26T08:37:26.812Z,59.84
2019-02-26T08:38:29.247Z,60.28
2019-02-26T08:39:26.793Z,61.24
2019-02-26T08:40:26.795Z,61.41
2019-02-26T08:41:26.779Z,61.90
2019-02-26T08:42:26.759Z,61.69
2019-02-26T08:43:26.747Z,61.56
2019-02-26T08:44:28.160Z,60.22
2019-02-26T08:45:26.726Z,60.12
2019-02-26T08:46:26.719Z,60.46
2019-02-26T08:47:26.718Z,60.84
2019-02-26T08:48:27.092Z,61.59
2019-02-26T08:49:26.692Z,60.46
2019-02-26T08:50:30.721Z,59.61
2019-02-26T08:51:27.660Z,59.30
2019-02-26T08:52:28.953Z,59.81
2019-02-26T08:53:28.524Z,60.02
2019-02-26T08:54:28.390Z,59.91
2019-02-26T08:55:26.620Z,59.68
2019-02-26T08:56:28.176Z,59.24
2019-02-26T08:57:26.601Z,59.86
2019-02-26T08:58:28.254Z,59.03
2019-02-26T08:59:26.584Z,59.42
2019-02-26T09:00:26.564Z,58.29
2019-02-26T09:01:26.556Z,58.59
2019-02-26T09:02:26.542Z,58.98
2019-02-26T09:03:26.530Z,58.98
2019-02-26T09:04:26.522Z,56.70
2019-02-26T09:05:29.163Z,57.39
2019-02-26T09:06:27.497Z,57.28
2019-02-26T09:07:26.500Z,57.70
2019-02-26T09:08:26.489Z,56.64
2019-02-26T09:09:27.785Z,57.36
2019-02-26T09:10:26.469Z,57.49
2019-02-26T09:11:28.651Z,56.98
2019-02-26T09:12:27.262Z,57.59
2019-02-26T09:13:26.425Z,57.18
2019-02-26T09:14:26.417Z,57.49
2019-02-26T09:15:26.407Z,56.77
2019-02-26T09:16:28.280Z,57.15
2019-02-26T09:17:27.521Z,55.82
2019-02-26T09:18:28.051Z,56.02
2019-02-26T09:19:27.845Z,55.92
2019-02-26T09:20:26.348Z,55.28
2019-02-26T09:21:26.342Z,55.51
2019-02-26T09:22:28.383Z,55.90
2019-02-26T09:23:28.249Z,55.90
2019-02-26T09:24:26.300Z,56.38
2019-02-26T09:25:28.830Z,54.51
2019-02-26T09:26:26.283Z,54.51
2019-02-26T09:27:27.215Z,54.28
2019-02-26T09:28:27.153Z,53.26
2019-02-26T09:29:26.258Z,52.64
2019-02-26T09:30:28.057Z,52.31
2019-02-26T09:31:26.228Z,52.62
2019-02-26T09:32:28.267Z,52.42
2019-02-26T09:33:30.554Z,52.70
2019-02-26T09:34:29.287Z,52.51
2019-02-26T09:35:28.832Z,53.05
2019-02-26T09:36:29.147Z,52.42
2019-02-26T09:37:26.161Z,52.72
2019-02-26T09:38:26.681Z,53.23
2019-02-26T09:39:27.512Z,53.13
2019-02-26T09:40:28.553Z,53.21
2019-02-26T09:41:26.116Z,52.80
2019-02-26T09:42:27.805Z,52.70
2019-02-26T09:43:26.099Z,52.59
2019-02-26T09:44:26.926Z,52.90
2019-02-26T09:45:29.646Z,52.06
2019-02-26T09:46:26.079Z,51.04
2019-02-26T09:47:28.422Z,50.63
2019-02-26T09:48:26.042Z,51.54
2019-02-26T09:49:26.725Z,51.24
2019-02-26T09:50:26.021Z,50.22
2019-02-26T09:51:26.013Z,50.42
2019-02-26T09:52:27.698Z,49.79
2019-02-26T09:53:25.989Z,49.50
2019-02-26T09:54:25.978Z,50.12
2019-02-26T09:55:25.968Z,49.71
2019-02-26T09:56:25.957Z,51.01
2019-02-26T09:57:28.186Z,51.12
2019-02-26T09:58:25.953Z,51.01
2019-02-26T09:59:26.456Z,49.79
2019-02-26T10:00:29.100Z,49.87
2019-02-26T10:01:25.906Z,49.96
2019-02-26T10:02:26.431Z,48.84
2019-02-26T10:03:27.302Z,48.64
2019-02-26T10:04:26.531Z,49.54
2019-02-26T10:05:25.862Z,48.51
2019-02-26T10:06:25.849Z,49.13
2019-02-26T10:07:26.562Z,50.33
2019-02-26T10:08:28.126Z,49.82
2019-02-26T10:09:25.817Z,50.23
2019-02-26T10:10:28.237Z,50.02
2019-02-26T10:11:27.958Z,49.90
2019-02-26T10:12:27.998Z,48.88
2019-02-26T10:13:27.700Z,48.28
2019-02-26T10:14:26.966Z,48.49
2019-02-26T10:15:25.754Z,49.00
2019-02-26T10:16:28.112Z,49.82
2019-02-26T10:17:25.732Z,49.92
2019-02-26T10:18:27.789Z,49.84
2019-02-26T10:19:25.711Z,48.51
2019-02-26T10:20:28.599Z,48.49
2019-02-26T10:21:26.740Z,48.82
2019-02-26T10:22:26.144Z,48.92
2019-02-26T10:23:26.822Z,48.92
2019-02-26T10:24:27.335Z,47.20
2019-02-26T10:25:26.383Z,45.06
2019-02-26T10:26:26.425Z,48.23
2019-02-26T10:27:25.645Z,48.33
2019-02-26T10:28:25.613Z,49.05
2019-02-26T10:29:25.604Z,48.21
2019-02-26T10:30:27.705Z,49.43
2019-02-26T10:31:27.477Z,50.86
2019-02-26T10:32:26.485Z,50.15
2019-02-26T10:33:25.569Z,50.63
2019-02-26T10:34:30.020Z,49.71
2019-02-26T10:35:33.101Z,49.79
2019-02-26T10:36:30.342Z,49.79
2019-02-26T10:37:26.513Z,48.06
2019-02-26T10:38:29.618Z,47.24
2019-02-26T10:39:28.345Z,45.00
2019-02-26T10:40:34.666Z,45.00
2019-02-26T10:41:26.469Z,46.33
2019-02-26T10:42:25.465Z,45.81
2019-02-26T10:43:25.449Z,46.51
2019-02-26T10:44:25.438Z,46.53
2019-02-26T10:45:25.440Z,46.94
2019-02-26T10:46:25.416Z,47.22
2019-02-26T10:47:27.329Z,48.24
2019-02-26T10:48:27.986Z,48.03
2019-02-26T10:49:25.411Z,48.03
2019-02-26T10:50:31.031Z,47.94
2019-02-26T10:51:27.188Z,49.75
2019-02-26T10:52:26.375Z,49.65
2019-02-26T10:53:25.340Z,48.93
2019-02-26T10:54:25.336Z,49.57
2019-02-26T10:55:31.361Z,49.77
2019-02-26T10:56:28.710Z,49.77
2019-02-26T10:57:26.980Z,49.77
2019-02-26T10:58:25.291Z,48.75
2019-02-26T10:59:25.283Z,48.75
2019-02-26T11:00:27.934Z,47.83
2019-02-26T11:01:28.725Z,48.11
2019-02-26T11:02:27.815Z,47.09
2019-02-26T11:03:25.244Z,47.73
2019-02-26T11:04:34.505Z,47.09
2019-02-26T11:05:26.767Z,47.20
2019-02-26T11:06:25.201Z,46.48
2019-02-26T11:07:26.429Z,46.18
2019-02-26T11:08:27.239Z,46.28
2019-02-26T11:09:28.715Z,45.95
2019-02-26T11:10:25.328Z,46.36
2019-02-26T11:11:25.150Z,44.73
2019-02-26T11:12:27.763Z,45.85
2019-02-26T11:13:25.882Z,46.06
2019-02-26T11:14:25.114Z,44.32
2019-02-26T11:15:26.923Z,44.02
2019-02-26T11:16:27.817Z,43.10
2019-02-26T11:17:26.407Z,41.98
2019-02-26T11:18:25.070Z,42.90
2019-02-26T11:19:27.218Z,42.39
2019-02-26T11:20:27.672Z,42.90
2019-02-26T11:21:26.048Z,43.18
2019-02-26T11:22:25.793Z,44.22
2019-02-26T11:23:30.913Z,44.32
2019-02-26T11:24:28.180Z,41.98
2019-02-26T11:25:27.327Z,43.29
2019-02-26T11:26:24.982Z,42.80
2019-02-26T11:27:24.982Z,43.38
2019-02-26T11:28:29.760Z,42.77
2019-02-26T11:29:26.128Z,41.25
2019-02-26T11:30:28.585Z,41.45
2019-02-26T11:31:25.588Z,40.74
2019-02-26T11:32:27.173Z,39.62
2019-02-26T11:33:24.918Z,39.90
2019-02-26T11:34:25.542Z,39.62
2019-02-26T11:35:27.144Z,40.41
2019-02-26T11:36:25.187Z,39.29
2019-02-26T11:37:27.059Z,39.40
2019-02-26T11:38:24.849Z,39.80
2019-02-26T11:39:24.849Z,40.19
2019-02-26T11:40:27.410Z,42.04
2019-02-26T11:41:26.458Z,39.80
2019-02-26T11:42:26.185Z,38.56
2019-02-26T11:43:26.900Z,37.24
2019-02-26T11:44:25.805Z,36.12
2019-02-26T11:45:24.783Z,35.61
2019-02-26T11:46:26.772Z,36.73
2019-02-26T11:47:24.750Z,36.73
2019-02-26T11:48:25.915Z,36.32
2019-02-26T11:49:24.728Z,36.73
2019-02-26T11:50:28.046Z,36.02
2019-02-26T11:51:24.717Z,34.90
2019-02-26T11:52:24.695Z,35.80
2019-02-26T11:53:24.701Z,34.48
2019-02-26T11:54:24.675Z,34.49
2019-02-26T11:55:26.909Z,34.38
2019-02-26T11:56:25.720Z,34.07
2019-02-26T11:57:24.654Z,32.95
2019-02-26T11:58:26.907Z,33.05
2019-02-26T11:59:24.617Z,33.66
2019-02-26T12:00:25.853Z,34.48
2019-02-26T12:01:27.042Z,37.51
2019-02-26T12:02:28.006Z,37.12
2019-02-26T12:03:28.051Z,37.21
2019-02-26T12:04:25.019Z,37.41
2019-02-26T12:05:32.851Z,37.00
2019-02-26T12:06:25.539Z,37.30
2019-02-26T12:07:26.862Z,37.00
2019-02-26T12:08:25.746Z,36.39
2019-02-26T12:09:24.526Z,36.90
2019-02-26T12:10:27.089Z,37.00
2019-02-26T12:11:25.485Z,37.59
2019-02-26T12:12:25.730Z,35.46
2019-02-26T12:13:25.080Z,34.55
2019-02-26T12:14:24.453Z,34.85
2019-02-26T12:15:24.453Z,35.05
2019-02-26T12:16:24.431Z,36.47
2019-02-26T12:17:24.420Z,36.27
2019-02-26T12:18:24.409Z,35.14
2019-02-26T12:19:25.645Z,35.44
2019-02-26T12:20:24.388Z,36.36
2019-02-26T12:21:25.215Z,35.85
2019-02-26T12:22:25.177Z,35.85
2019-02-26T12:23:24.355Z,36.14
2019-02-26T12:24:26.430Z,36.25
2019-02-26T12:25:24.335Z,36.36
2019-02-26T12:26:25.525Z,34.72
2019-02-26T12:27:24.324Z,34.12
2019-02-26T12:28:25.476Z,34.11
2019-02-26T12:29:26.038Z,34.61
2019-02-26T12:30:24.281Z,34.82
2019-02-26T12:31:25.384Z,35.22
2019-02-26T12:32:24.990Z,34.31
2019-02-26T12:33:24.273Z,34.41
2019-02-26T12:34:24.240Z,33.91
2019-02-26T12:35:24.231Z,31.67
2019-02-26T12:36:26.462Z,31.45
2019-02-26T12:37:24.206Z,32.07
2019-02-26T12:38:24.195Z,32.26
2019-02-26T12:39:24.983Z,31.45
2019-02-26T12:40:25.479Z,32.17
2019-02-26T12:41:24.163Z,31.86
2019-02-26T12:42:24.156Z,31.96
2019-02-26T12:43:24.142Z,32.98
2019-02-26T12:44:24.132Z,33.28
2019-02-26T12:45:26.112Z,32.77
2019-02-26T12:46:25.116Z,32.37
2019-02-26T12:47:24.840Z,34.09
2019-02-26T12:48:24.091Z,33.58
2019-02-26T12:49:24.080Z,33.99
2019-02-26T12:50:27.210Z,33.57
2019-02-26T12:51:26.305Z,32.96
2019-02-26T12:52:26.899Z,32.56